Time;durP1;ratioP1;P1;durP2;ratioP2;P2;SDS_P1;SDS_P2;PMS_P1;PMS_P2;Temp;Humidity;BMP_temperature;BMP_pressure;BME280_temperature;BME280_humidity;BME280_pressure;Samples;Min_cycle;Max_cycle;Signal;HPM_P1;HPM_P2
2024/01/30 00:01:29;;;;;;;12.15;9.02;;;;;;;-145.63;100.00;61273.97;5034201;28;20354;-67
2024/01/30 00:03:55;;;;;;;12.73;9.00;;;;;;;-145.63;100.00;61273.97;5034380;28;20048;-66
2024/01/30 00:06:22;;;;;;;12.05;9.10;;;;;;;-145.63;100.00;61273.97;5032738;28;20379;-67
2024/01/30 00:08:48;;;;;;;11.02;8.27;;;;;;;-145.63;100.00;61273.97;5034609;28;20056;-64
2024/01/30 00:11:15;;;;;;;10.75;8.18;;;;;;;-145.63;100.00;61273.97;5033440;28;20030;-65
2024/01/30 00:13:41;;;;;;;12.07;8.35;;;;;;;-145.63;100.00;61273.97;5014770;28;20080;-65
2024/01/30 00:16:09;;;;;;;12.98;9.35;;;;;;;-145.63;100.00;61273.97;5030073;28;20065;-67
2024/01/30 00:18:35;;;;;;;11.77;8.65;;;;;;;-145.63;100.00;61273.97;5033782;28;20038;-66
2024/01/30 00:21:01;;;;;;;11.32;8.07;;;;;;;-145.63;100.00;61273.97;5027255;28;20034;-64
2024/01/30 00:23:26;;;;;;;12.38;8.68;;;;;;;-145.63;100.00;61273.97;5016292;28;20037;-65
2024/01/30 00:25:52;;;;;;;9.57;7.90;;;;;;;-145.63;100.00;61273.97;5033840;28;20029;-65
2024/01/30 00:28:18;;;;;;;10.23;7.57;;;;;;;-145.63;100.00;61273.97;5033753;28;20376;-68
2024/01/30 00:30:44;;;;;;;10.82;8.05;;;;;;;-145.63;100.00;61273.97;5033486;28;20042;-65
2024/01/30 00:33:09;;;;;;;8.40;7.45;;;;;;;-145.63;100.00;61273.97;5025767;28;20570;-66
2024/01/30 00:35:35;;;;;;;9.73;7.82;;;;;;;-145.63;100.00;61273.97;5016701;28;20045;-64
2024/01/30 00:38:01;;;;;;;10.13;7.95;;;;;;;-145.63;100.00;61273.97;5033522;28;20037;-65
2024/01/30 00:40:27;;;;;;;10.60;7.57;;;;;;;-145.63;100.00;61273.97;5033343;28;20100;-65
2024/01/30 00:42:52;;;;;;;13.68;8.25;;;;;;;-145.63;100.00;61273.97;5033600;28;20370;-64
2024/01/30 00:45:18;;;;;;;9.35;7.93;;;;;;;-145.63;100.00;61273.97;5033459;28;20076;-65
2024/01/30 00:47:44;;;;;;;10.32;8.38;;;;;;;-145.63;100.00;61273.97;5033599;28;20083;-65
2024/01/30 00:50:10;;;;;;;9.63;7.07;;;;;;;-145.63;100.00;61273.97;5033449;28;20029;-64
2024/01/30 00:52:36;;;;;;;10.30;8.45;;;;;;;-145.63;100.00;61273.97;5033599;28;20108;-65
2024/01/30 00:55:03;;;;;;;9.77;7.50;;;;;;;-145.63;100.00;61273.97;5018608;28;20128;-65
2024/01/30 00:57:29;;;;;;;10.18;7.68;;;;;;;-145.63;100.00;61273.97;5024158;28;20042;-65
2024/01/30 00:59:54;;;;;;;8.73;7.40;;;;;;;-145.63;100.00;61273.97;5033410;28;20033;-65
2024/01/30 01:02:20;;;;;;;10.15;8.13;;;;;;;-145.63;100.00;61273.97;5032968;28;20018;-65
2024/01/30 01:04:46;;;;;;;10.98;8.00;;;;;;;-145.63;100.00;61273.97;5033225;28;20033;-66
2024/01/30 01:07:11;;;;;;;11.07;8.25;;;;;;;-145.63;100.00;61273.97;5016890;28;20045;-65
2024/01/30 01:09:37;;;;;;;11.32;8.48;;;;;;;-145.63;100.00;61273.97;5025138;28;20056;-65
2024/01/30 01:12:04;;;;;;;10.82;8.40;;;;;;;-145.63;100.00;61273.97;5026685;28;20045;-66
2024/01/30 01:14:30;;;;;;;9.48;7.97;;;;;;;-145.63;100.00;61273.97;5023460;28;20463;-65
2024/01/30 01:16:56;;;;;;;10.52;8.07;;;;;;;-145.63;100.00;61273.97;5023051;28;20117;-65
2024/01/30 01:19:22;;;;;;;10.15;7.97;;;;;;;-145.63;100.00;61273.97;5053298;28;20407;-66
2024/01/30 01:21:48;;;;;;;10.77;8.18;;;;;;;-145.63;100.00;61273.97;5040251;28;20052;-67
2024/01/30 01:24:13;;;;;;;10.20;8.18;;;;;;;-145.63;100.00;61273.97;5033337;28;20436;-65
2024/01/30 01:26:39;;;;;;;9.48;7.82;;;;;;;-145.63;100.00;61273.97;5033637;28;20112;-66
2024/01/30 01:29:09;;;;;;;9.80;7.60;;;;;;;-145.63;100.00;61273.97;5032432;28;20049;-65
2024/01/30 01:31:45;;;;;;;10.90;8.35;;;;;;;-145.63;100.00;61273.97;5032229;28;20104;-66
2024/01/30 01:34:12;;;;;;;9.70;7.82;;;;;;;-145.63;100.00;61273.97;5032704;28;20040;-65
2024/01/30 01:36:39;;;;;;;10.38;7.90;;;;;;;-145.63;100.00;61273.97;5032523;28;20172;-65
2024/01/30 01:39:05;;;;;;;9.68;8.00;;;;;;;-145.63;100.00;61273.97;5032825;28;20189;-64
2024/01/30 01:41:31;;;;;;;10.52;8.10;;;;;;;-145.63;100.00;61273.97;5032558;28;20044;-66
2024/01/30 01:43:58;;;;;;;9.48;7.93;;;;;;;-145.63;100.00;61273.97;5033020;28;20025;-65
2024/01/30 01:46:26;;;;;;;10.75;7.93;;;;;;;-145.63;100.00;61273.97;5032537;28;20530;-66
2024/01/30 01:48:51;;;;;;;10.45;8.18;;;;;;;-145.63;100.00;61273.97;5032839;28;20071;-65
2024/01/30 01:51:17;;;;;;;10.27;8.05;;;;;;;-145.63;100.00;61273.97;5032415;28;20112;-65
2024/01/30 01:53:43;;;;;;;9.90;7.80;;;;;;;-145.63;100.00;61273.97;5031928;28;20032;-65
2024/01/30 01:56:09;;;;;;;10.02;8.27;;;;;;;-145.63;100.00;61273.97;5025746;28;20037;-65
2024/01/30 01:58:36;;;;;;;10.68;7.82;;;;;;;-145.63;100.00;61273.97;5031422;28;20036;-65
2024/01/30 02:01:02;;;;;;;10.23;7.90;;;;;;;-145.63;100.00;61273.97;5033290;28;20037;-64
2024/01/30 02:03:28;;;;;;;9.07;7.88;;;;;;;-145.63;100.00;61273.97;5033955;28;20412;-65
2024/01/30 02:05:55;;;;;;;11.65;8.35;;;;;;;-145.63;100.00;61273.97;5033269;28;20032;-66
2024/01/30 02:08:20;;;;;;;10.85;8.55;;;;;;;-145.63;100.00;61273.97;5032364;28;20033;-67
2024/01/30 02:10:46;;;;;;;10.70;8.10;;;;;;;-145.63;100.00;61273.97;5032219;28;20428;-67
2024/01/30 02:13:12;;;;;;;10.73;8.77;;;;;;;-145.63;100.00;61273.97;5032720;28;20463;-66
2024/01/30 02:15:38;;;;;;;10.88;8.38;;;;;;;-145.63;100.00;61273.97;5028968;28;20079;-66
2024/01/30 02:18:04;;;;;;;11.65;8.70;;;;;;;-145.63;100.00;61273.97;5034257;28;20032;-65
2024/01/30 02:20:54;;;;;;;13.02;8.02;;;;;;;-145.63;100.00;61273.97;5017663;28;20029;-65
2024/01/30 02:23:20;;;;;;;10.57;8.40;;;;;;;-145.63;100.00;61273.97;5032468;28;20041;-65
2024/01/30 02:25:46;;;;;;;13.25;10.63;;;;;;;-145.63;100.00;61273.97;5032002;28;20451;-65
2024/01/30 02:28:15;;;;;;;11.00;8.48;;;;;;;-145.63;100.00;61273.97;5031894;28;20030;-64
2024/01/30 02:30:45;;;;;;;10.95;8.70;;;;;;;-145.63;100.00;61273.97;5032346;28;20025;-66
2024/01/30 02:33:10;;;;;;;11.88;9.13;;;;;;;-145.63;100.00;61273.97;5032611;28;20514;-66
2024/01/30 02:35:36;;;;;;;11.55;8.88;;;;;;;-145.63;100.00;61273.97;5031264;28;20061;-68
2024/01/30 02:38:02;;;;;;;11.18;8.80;;;;;;;-145.63;100.00;61273.97;5032664;28;20075;-67
2024/01/30 02:40:28;;;;;;;10.75;8.40;;;;;;;-145.63;100.00;61273.97;5033793;28;20041;-68
2024/01/30 02:42:53;;;;;;;9.60;8.23;;;;;;;-145.63;100.00;61273.97;5036416;28;20082;-67
2024/01/30 02:45:19;;;;;;;11.85;9.07;;;;;;;-145.63;100.00;61273.97;5035663;28;20033;-66
2024/01/30 02:47:45;;;;;;;9.32;8.02;;;;;;;-145.63;100.00;61273.97;5036127;28;20037;-67
2024/01/30 02:50:11;;;;;;;12.20;8.60;;;;;;;-145.63;100.00;61273.97;5036344;28;20470;-67
2024/01/30 02:52:37;;;;;;;9.80;8.30;;;;;;;-145.63;100.00;61273.97;5035776;28;20037;-65
2024/01/30 02:55:03;;;;;;;12.40;8.88;;;;;;;-145.63;100.00;61273.97;5035584;28;20075;-65
2024/01/30 02:57:30;;;;;;;11.90;9.40;;;;;;;-145.63;100.00;61273.97;5024479;28;20038;-65
2024/01/30 02:59:56;;;;;;;12.52;8.48;;;;;;;-145.63;100.00;61273.97;5019304;28;20080;-66
2024/01/30 03:02:22;;;;;;;11.15;8.40;;;;;;;-145.63;100.00;61273.97;5035155;28;20061;-63
2024/01/30 03:04:48;;;;;;;11.75;8.85;;;;;;;-145.63;100.00;61273.97;5035336;28;20427;-64
2024/01/30 03:07:13;;;;;;;14.80;9.15;;;;;;;-145.63;100.00;61273.97;5032645;28;20425;-65
2024/01/30 03:09:42;;;;;;;10.73;8.80;;;;;;;-145.63;100.00;61273.97;5029312;28;20108;-66
2024/01/30 03:12:08;;;;;;;11.48;8.48;;;;;;;-145.63;100.00;61273.97;5028354;28;20040;-68
2024/01/30 03:14:33;;;;;;;10.30;8.40;;;;;;;-145.63;100.00;61273.97;5035833;28;20029;-67
2024/01/30 03:16:59;;;;;;;13.15;9.23;;;;;;;-145.63;100.00;61273.97;5021357;28;20356;-65
2024/01/30 03:19:25;;;;;;;11.80;8.63;;;;;;;-145.63;100.00;61273.97;5035030;28;20044;-66
2024/01/30 03:21:51;;;;;;;10.27;8.68;;;;;;;-145.63;100.00;61273.97;5035377;28;20105;-66
2024/01/30 03:24:17;;;;;;;11.40;8.25;;;;;;;-145.63;100.00;61273.97;5033953;28;20033;-66
2024/01/30 03:26:44;;;;;;;10.45;8.43;;;;;;;-145.63;100.00;61273.97;5035284;28;20029;-66
2024/01/30 03:29:09;;;;;;;10.85;8.20;;;;;;;-145.63;100.00;61273.97;5035302;28;20034;-66
2024/01/30 03:31:35;;;;;;;10.85;8.27;;;;;;;-145.63;100.00;61273.97;5034383;28;20029;-65
2024/01/30 03:34:01;;;;;;;10.82;8.63;;;;;;;-145.63;100.00;61273.97;5034945;28;20103;-66
2024/01/30 03:36:28;;;;;;;11.00;8.35;;;;;;;-145.63;100.00;61273.97;5027531;28;20046;-67
2024/01/30 03:38:54;;;;;;;9.57;8.10;;;;;;;-145.63;100.00;61273.97;5017760;28;20089;-65
2024/01/30 03:41:20;;;;;;;14.57;8.43;;;;;;;-145.63;100.00;61273.97;5034873;28;20029;-67
2024/01/30 03:43:46;;;;;;;10.65;7.82;;;;;;;-145.63;100.00;61273.97;5034971;28;20029;-67
2024/01/30 03:46:13;;;;;;;10.90;8.50;;;;;;;-145.63;100.00;61273.97;5036697;28;20451;-66
2024/01/30 03:48:39;;;;;;;10.35;8.35;;;;;;;-145.63;100.00;61273.97;5034679;28;20394;-65
2024/01/30 03:51:05;;;;;;;11.90;9.07;;;;;;;-145.63;100.00;61273.97;5035135;28;20060;-67
2024/01/30 03:53:30;;;;;;;12.57;8.68;;;;;;;-145.63;100.00;61273.97;5034774;28;20053;-66
2024/01/30 03:55:56;;;;;;;11.57;8.73;;;;;;;-145.63;100.00;61273.97;5034969;28;20041;-67
2024/01/30 03:58:22;;;;;;;9.50;8.38;;;;;;;-145.63;100.00;61273.97;5033481;28;20056;-66
2024/01/30 04:00:48;;;;;;;10.73;8.30;;;;;;;-145.63;100.00;61273.97;5033745;28;20064;-65
2024/01/30 04:03:17;;;;;;;9.63;7.82;;;;;;;-145.63;100.00;61273.97;5034443;28;20428;-67
2024/01/30 04:05:43;;;;;;;11.30;8.13;;;;;;;-145.63;100.00;61273.97;5029646;28;20328;-67
2024/01/30 04:08:09;;;;;;;12.00;8.88;;;;;;;-145.63;100.00;61273.97;5034641;28;20037;-65
2024/01/30 04:10:35;;;;;;;9.90;8.10;;;;;;;-145.63;100.00;61273.97;5046348;28;20132;-66
2024/01/30 04:13:01;;;;;;;10.75;8.23;;;;;;;-145.63;100.00;61273.97;5042889;28;20514;-67
2024/01/30 04:15:27;;;;;;;11.18;8.82;;;;;;;-145.63;100.00;61273.97;5028473;28;20106;-67
2024/01/30 04:17:53;;;;;;;10.85;8.48;;;;;;;-145.63;100.00;61273.97;5015986;28;20117;-66
2024/01/30 04:20:19;;;;;;;16.42;9.50;;;;;;;-145.63;100.00;61273.97;5034351;28;20063;-70
2024/01/30 04:22:45;;;;;;;10.55;8.55;;;;;;;-145.63;100.00;61273.97;5034322;28;20367;-66
2024/01/30 04:25:12;;;;;;;10.13;8.50;;;;;;;-145.63;100.00;61273.97;5034371;28;20030;-66
2024/01/30 04:27:37;;;;;;;11.23;8.38;;;;;;;-145.63;100.00;61273.97;5033926;28;20468;-65
2024/01/30 04:30:03;;;;;;;11.20;8.65;;;;;;;-145.63;100.00;61273.97;5034038;28;20030;-66
2024/01/30 04:32:32;;;;;;;11.45;8.63;;;;;;;-145.63;100.00;61273.97;5032808;28;20382;-65
2024/01/30 04:34:58;;;;;;;12.80;9.20;;;;;;;-145.63;100.00;61273.97;5033779;28;20132;-65
2024/01/30 04:37:24;;;;;;;10.77;8.05;;;;;;;-145.63;100.00;61273.97;5018994;28;20054;-65
2024/01/30 04:39:50;;;;;;;10.98;8.50;;;;;;;-145.63;100.00;61273.97;5020084;28;20815;-67
2024/01/30 04:42:17;;;;;;;13.25;8.85;;;;;;;-145.63;100.00;61273.97;5033634;28;20037;-66
2024/01/30 04:44:43;;;;;;;11.82;9.20;;;;;;;-145.63;100.00;61273.97;5021499;28;20072;-65
2024/01/30 04:47:11;;;;;;;11.63;9.10;;;;;;;-145.63;100.00;61273.97;5033707;28;20030;-63
2024/01/30 04:49:36;;;;;;;14.05;9.20;;;;;;;-145.63;100.00;61273.97;5032977;28;20447;-63
2024/01/30 04:52:02;;;;;;;12.50;9.23;;;;;;;-145.63;100.00;61273.97;5033465;28;20086;-65
2024/01/30 04:54:28;;;;;;;10.27;8.73;;;;;;;-145.63;100.00;61273.97;5033364;28;20029;-64
2024/01/30 04:56:54;;;;;;;13.25;8.88;;;;;;;-145.63;100.00;61273.97;5032674;28;20391;-64
2024/01/30 04:59:19;;;;;;;12.40;9.15;;;;;;;-145.63;100.00;61273.97;5030922;28;20072;-65
2024/01/30 05:01:45;;;;;;;13.43;9.05;;;;;;;-145.63;100.00;61273.97;5033382;28;20509;-65
2024/01/30 05:04:11;;;;;;;12.98;9.93;;;;;;;-145.63;100.00;61273.97;5032892;28;20025;-63
2024/01/30 05:06:37;;;;;;;15.32;10.35;;;;;;;-145.63;100.00;61273.97;5031550;28;20056;-63
2024/01/30 05:09:06;;;;;;;15.55;10.52;;;;;;;-145.63;100.00;61273.97;5033384;28;20323;-64
2024/01/30 05:11:36;;;;;;;12.93;9.18;;;;;;;-145.63;100.00;61273.97;5041845;28;20022;-65
2024/01/30 05:14:02;;;;;;;11.55;9.05;;;;;;;-145.63;100.00;61273.97;5032726;28;20064;-65
2024/01/30 05:16:27;;;;;;;13.45;9.77;;;;;;;-145.63;100.00;61273.97;5032349;28;20064;-66
2024/01/30 05:18:53;;;;;;;13.20;10.23;;;;;;;-145.63;100.00;61273.97;5033010;28;20116;-65
2024/01/30 05:21:19;;;;;;;13.18;9.93;;;;;;;-145.63;100.00;61273.97;5033025;28;20029;-66
2024/01/30 05:23:44;;;;;;;11.95;9.13;;;;;;;-145.63;100.00;61273.97;5032749;28;20075;-65
2024/01/30 05:26:10;;;;;;;19.42;9.25;;;;;;;-145.63;100.00;61273.97;5032848;28;20375;-65
2024/01/30 05:28:36;;;;;;;14.13;9.57;;;;;;;-145.63;100.00;61273.97;5032558;28;20048;-66
2024/01/30 05:31:02;;;;;;;12.27;9.55;;;;;;;-145.63;100.00;61273.97;5032555;28;20099;-65
2024/01/30 05:33:28;;;;;;;11.82;9.40;;;;;;;-145.63;100.00;61273.97;5032350;28;20021;-64
2024/01/30 05:35:54;;;;;;;13.55;10.20;;;;;;;-145.63;100.00;61273.97;5031146;28;20061;-64
2024/01/30 05:38:20;;;;;;;16.73;10.88;;;;;;;-145.63;100.00;61273.97;5011733;28;20049;-63
2024/01/30 05:40:46;;;;;;;13.45;9.38;;;;;;;-145.63;100.00;61273.97;5029823;28;20041;-64
2024/01/30 05:43:12;;;;;;;14.63;10.07;;;;;;;-145.63;100.00;61273.97;5032750;28;20064;-63
2024/01/30 05:45:37;;;;;;;15.05;9.77;;;;;;;-145.63;100.00;61273.97;5032315;28;20037;-65
2024/01/30 05:48:04;;;;;;;13.85;10.23;;;;;;;-145.63;100.00;61273.97;5032079;28;20041;-65
2024/01/30 05:50:30;;;;;;;13.07;10.48;;;;;;;-145.63;100.00;61273.97;5019827;28;20480;-63
2024/01/30 05:52:56;;;;;;;15.07;10.20;;;;;;;-145.63;100.00;61273.97;5030720;28;20037;-63
2024/01/30 05:55:21;;;;;;;16.13;10.60;;;;;;;-145.63;100.00;61273.97;5031437;28;20068;-64
2024/01/30 05:57:47;;;;;;;12.25;9.57;;;;;;;-145.63;100.00;61273.97;5031186;28;20025;-64
2024/01/30 06:00:13;;;;;;;14.82;10.23;;;;;;;-145.63;100.00;61273.97;5029118;28;20410;-64
2024/01/30 06:02:39;;;;;;;13.50;10.40;;;;;;;-145.63;100.00;61273.97;5032053;28;20041;-64
2024/01/30 06:05:05;;;;;;;14.57;10.80;;;;;;;-145.63;100.00;61273.97;5031358;28;20032;-64
2024/01/30 06:07:31;;;;;;;15.73;10.90;;;;;;;-145.63;100.00;61273.97;5026961;28;20552;-64
2024/01/30 06:09:57;;;;;;;14.45;10.40;;;;;;;-145.63;100.00;61273.97;5034697;28;20025;-64
2024/01/30 06:12:23;;;;;;;15.05;10.68;;;;;;;-145.63;100.00;61273.97;5046392;28;20079;-64
2024/01/30 06:14:48;;;;;;;16.48;10.63;;;;;;;-145.63;100.00;61273.97;5031635;28;20034;-65
2024/01/30 06:17:14;;;;;;;15.50;10.77;;;;;;;-145.63;100.00;61273.97;5032153;28;20029;-64
2024/01/30 06:19:40;;;;;;;15.98;10.70;;;;;;;-145.63;100.00;61273.97;5016589;28;20029;-64
2024/01/30 06:22:06;;;;;;;16.80;10.63;;;;;;;-145.63;100.00;61273.97;5023400;28;20042;-64
2024/01/30 06:24:32;;;;;;;18.23;10.50;;;;;;;-145.63;100.00;61273.97;5032078;28;20029;-64
2024/01/30 06:26:57;;;;;;;15.10;10.82;;;;;;;-145.63;100.00;61273.97;5031938;28;20026;-65
2024/01/30 06:29:26;;;;;;;16.63;11.32;;;;;;;-145.63;100.00;61273.97;5032115;28;20061;-64
2024/01/30 06:31:52;;;;;;;18.73;11.27;;;;;;;-145.63;100.00;61273.97;5029709;28;20030;-65
2024/01/30 06:34:18;;;;;;;18.52;11.98;;;;;;;-145.63;100.00;61273.97;5031209;28;20579;-65
2024/01/30 06:36:44;;;;;;;17.83;11.63;;;;;;;-145.63;100.00;61273.97;5024090;28;20125;-64
2024/01/30 06:39:10;;;;;;;14.68;10.40;;;;;;;-145.63;100.00;61273.97;5014208;28;20037;-64
2024/01/30 06:41:35;;;;;;;14.90;10.95;;;;;;;-145.63;100.00;61273.97;5031067;28;20091;-63
2024/01/30 06:44:06;;;;;;;16.60;11.90;;;;;;;-145.63;100.00;61273.97;5031464;28;20627;-64
2024/01/30 06:46:32;;;;;;;19.17;11.75;;;;;;;-145.63;100.00;61273.97;5031985;28;20052;-64
2024/01/30 06:48:58;;;;;;;16.83;11.45;;;;;;;-145.63;100.00;61273.97;5032283;28;20033;-63
2024/01/30 06:51:24;;;;;;;14.25;11.00;;;;;;;-145.63;100.00;61273.97;5017416;28;20374;-63
2024/01/30 06:53:49;;;;;;;16.05;11.73;;;;;;;-145.63;100.00;61273.97;5030506;28;20033;-64
2024/01/30 06:56:20;;;;;;;17.27;11.63;;;;;;;-145.63;100.00;61273.97;5023266;28;20034;-63
2024/01/30 06:58:50;;;;;;;18.20;11.93;;;;;;;-145.63;100.00;61273.97;5027984;28;20135;-64
2024/01/30 07:01:16;;;;;;;20.08;12.15;;;;;;;-145.63;100.00;61273.97;5032960;28;20033;-64
2024/01/30 07:03:42;;;;;;;18.90;11.98;;;;;;;-145.63;100.00;61273.97;5031763;28;20025;-63
2024/01/30 07:06:09;;;;;;;18.92;11.48;;;;;;;-145.63;100.00;61273.97;5028711;28;20174;-64
2024/01/30 07:08:35;;;;;;;17.85;11.32;;;;;;;-145.63;100.00;61273.97;5011264;28;20656;-65
2024/01/30 07:11:00;;;;;;;14.73;10.82;;;;;;;-145.63;100.00;61273.97;5041433;28;20367;-64
2024/01/30 07:13:28;;;;;;;16.50;12.00;;;;;;;-145.63;100.00;61273.97;5038083;28;20029;-63
2024/01/30 07:15:54;;;;;;;16.98;12.00;;;;;;;-145.63;100.00;61273.97;5030961;28;20037;-64
2024/01/30 07:18:20;;;;;;;19.60;11.68;;;;;;;-145.63;100.00;61273.97;5026927;28;20034;-64
2024/01/30 07:20:47;;;;;;;18.02;11.65;;;;;;;-145.63;100.00;61273.97;5011368;28;20034;-64
2024/01/30 07:23:17;;;;;;;16.92;11.45;;;;;;;-145.63;100.00;61273.97;5022357;28;20025;-64
2024/01/30 07:25:48;;;;;;;17.13;11.77;;;;;;;-145.63;100.00;61273.97;5030956;28;20067;-64
2024/01/30 07:28:16;;;;;;;16.02;11.52;;;;;;;-145.63;100.00;61273.97;5033659;28;20454;-66
2024/01/30 07:30:42;;;;;;;16.52;11.65;;;;;;;-145.63;100.00;61273.97;5032081;28;20037;-64
2024/01/30 07:33:08;;;;;;;17.80;11.77;;;;;;;-145.63;100.00;61273.97;5032483;28;20037;-64
2024/01/30 07:35:35;;;;;;;20.48;12.32;;;;;;;-145.63;100.00;61273.97;5016620;28;20041;-65
2024/01/30 07:38:01;;;;;;;17.08;11.27;;;;;;;-145.63;100.00;61273.97;5017446;28;20121;-63
2024/01/30 07:40:27;;;;;;;20.10;11.95;;;;;;;-145.63;100.00;61273.97;5017808;28;20076;-63
2024/01/30 07:42:55;;;;;;;18.95;12.00;;;;;;;-145.63;100.00;61273.97;5030593;28;20075;-63
2024/01/30 07:45:22;;;;;;;20.23;12.27;;;;;;;-145.63;100.00;61273.97;5034190;28;20133;-63
2024/01/30 07:47:51;;;;;;;17.63;11.60;;;;;;;-145.63;100.00;61273.97;5028007;28;20036;-64
2024/01/30 07:50:17;;;;;;;20.35;12.60;;;;;;;-145.63;100.00;61273.97;5019797;28;20434;-63
2024/01/30 07:52:43;;;;;;;18.55;11.95;;;;;;;-145.63;100.00;61273.97;5025779;28;20030;-65
2024/01/30 07:55:09;;;;;;;16.50;12.65;;;;;;;-145.63;100.00;61273.97;5028062;28;20030;-63
2024/01/30 07:57:35;;;;;;;17.13;12.00;;;;;;;-145.63;100.00;61273.97;5027601;28;20045;-64
2024/01/30 08:00:02;;;;;;;24.13;13.27;;;;;;;-145.63;100.00;61273.97;5025470;28;20022;-64
2024/01/30 08:02:30;;;;;;;17.52;12.32;;;;;;;-145.63;100.00;61273.97;5025516;28;20050;-64
2024/01/30 08:04:56;;;;;;;20.92;12.30;;;;;;;-145.63;100.00;61273.97;5024586;28;20140;-64
2024/01/30 08:07:22;;;;;;;18.20;12.20;;;;;;;-145.63;100.00;61273.97;5027441;28;20045;-64
2024/01/30 08:09:48;;;;;;;17.67;11.68;;;;;;;-145.63;100.00;61273.97;5034782;28;20025;-64
2024/01/30 08:12:14;;;;;;;21.35;12.30;;;;;;;-145.63;100.00;61273.97;5027109;28;20120;-63
2024/01/30 08:14:41;;;;;;;20.55;11.65;;;;;;;-145.63;100.00;61273.97;5019776;28;20116;-63
2024/01/30 08:17:07;;;;;;;24.63;17.38;;;;;;;-145.63;100.00;61273.97;5022162;28;20035;-63
2024/01/30 08:19:33;;;;;;;18.88;12.40;;;;;;;-145.63;100.00;61273.97;5023754;28;20034;-62
2024/01/30 08:21:59;;;;;;;20.02;12.73;;;;;;;-145.63;100.00;61273.97;5022817;28;20036;-63
2024/01/30 08:24:25;;;;;;;18.33;12.00;;;;;;;-145.63;100.00;61273.97;5023930;28;20029;-65
2024/01/30 08:26:51;;;;;;;19.58;12.40;;;;;;;-145.63;100.00;61273.97;5014013;28;20034;-64
2024/01/30 08:29:16;;;;;;;22.15;12.48;;;;;;;-145.63;100.00;61273.97;5032310;28;20047;-63
2024/01/30 08:31:42;;;;;;;21.73;13.00;;;;;;;-145.63;100.00;61273.97;5032689;28;20064;-63
2024/01/30 08:34:08;;;;;;;22.27;13.13;;;;;;;-145.63;100.00;61273.97;5033934;28;20111;-63
2024/01/30 08:36:34;;;;;;;16.67;12.82;;;;;;;-145.63;100.00;61273.97;5028646;28;20420;-64
2024/01/30 08:38:59;;;;;;;16.42;12.25;;;;;;;-145.63;100.00;61273.97;5014970;28;20042;-63
2024/01/30 08:41:25;;;;;;;21.00;12.10;;;;;;;-145.63;100.00;61273.97;5033819;28;20027;-63
2024/01/30 08:43:52;;;;;;;18.25;12.45;;;;;;;-145.63;100.00;61273.97;5033904;28;20475;-64
2024/01/30 08:46:21;;;;;;;21.85;12.25;;;;;;;-145.63;100.00;61273.97;5032161;28;20029;-64
2024/01/30 08:48:47;;;;;;;20.95;13.50;;;;;;;-145.63;100.00;61273.97;5049546;28;20171;-64
2024/01/30 08:51:15;;;;;;;19.50;12.32;;;;;;;-145.63;100.00;61273.97;5033648;28;20033;-64
2024/01/30 08:53:40;;;;;;;17.65;12.40;;;;;;;-145.63;100.00;61273.97;5033270;28;20049;-64
2024/01/30 08:56:07;;;;;;;22.80;13.15;;;;;;;-145.63;100.00;61273.97;5033777;28;20037;-63
2024/01/30 08:58:33;;;;;;;23.42;12.85;;;;;;;-145.63;100.00;61273.97;5019771;28;20541;-66
2024/01/30 09:00:58;;;;;;;21.00;12.27;;;;;;;-145.63;100.00;61273.97;5022197;28;20029;-64
2024/01/30 09:03:24;;;;;;;21.27;13.65;;;;;;;-145.63;100.00;61273.97;5033147;28;20088;-64
2024/01/30 09:05:50;;;;;;;21.75;13.25;;;;;;;-145.63;100.00;61273.97;5024144;28;20046;-63
2024/01/30 09:08:15;;;;;;;19.38;12.32;;;;;;;-145.63;100.00;61273.97;5032615;28;20067;-64
2024/01/30 09:10:41;;;;;;;17.33;12.43;;;;;;;-145.63;100.00;61273.97;5037422;28;20471;-65
2024/01/30 09:13:07;;;;;;;19.70;12.18;;;;;;;-145.63;100.00;61273.97;5023739;28;20061;-64
2024/01/30 09:15:32;;;;;;;18.63;12.38;;;;;;;-145.63;100.00;61273.97;5017735;28;20037;-65
2024/01/30 09:17:58;;;;;;;20.40;11.88;;;;;;;-145.63;100.00;61273.97;5014999;28;20033;-63
2024/01/30 09:20:24;;;;;;;20.48;12.65;;;;;;;-145.63;100.00;61273.97;5032645;28;20095;-64
2024/01/30 09:22:50;;;;;;;17.98;12.90;;;;;;;-145.63;100.00;61273.97;5033590;28;20408;-65
2024/01/30 09:25:15;;;;;;;21.88;13.18;;;;;;;-145.63;100.00;61273.97;5033162;28;20029;-64
2024/01/30 09:27:41;;;;;;;18.65;12.85;;;;;;;-145.63;100.00;61273.97;5033035;28;20044;-63
2024/01/30 09:30:07;;;;;;;23.55;13.27;;;;;;;-145.63;100.00;61273.97;5033482;28;20061;-63
2024/01/30 09:32:33;;;;;;;16.48;12.80;;;;;;;-145.63;100.00;61273.97;5033124;28;20082;-65
2024/01/30 09:34:58;;;;;;;18.58;12.90;;;;;;;-145.63;100.00;61273.97;5033016;28;20033;-66
2024/01/30 09:37:24;;;;;;;17.70;12.45;;;;;;;-145.63;100.00;61273.97;5027273;28;20060;-67
2024/01/30 09:39:50;;;;;;;20.90;12.90;;;;;;;-145.63;100.00;61273.97;5032383;28;20052;-64
2024/01/30 09:42:37;;;;;;;18.33;13.45;;;;;;;-145.63;100.00;61273.97;5032366;28;20040;-64
2024/01/30 09:45:05;;;;;;;19.88;13.02;;;;;;;-145.63;100.00;61273.97;5032654;28;20033;-64
2024/01/30 09:47:45;;;;;;;19.60;13.73;;;;;;;-145.63;100.00;61273.97;5031926;28;20125;-66
2024/01/30 09:50:13;;;;;;;18.15;12.82;;;;;;;-145.63;100.00;61273.97;5021715;28;20041;-65
2024/01/30 09:52:39;;;;;;;20.85;13.15;;;;;;;-145.63;100.00;61273.97;5007557;28;20059;-63
2024/01/30 09:55:06;;;;;;;18.73;12.50;;;;;;;-145.63;100.00;61273.97;5031857;28;20467;-66
2024/01/30 09:57:32;;;;;;;18.42;12.98;;;;;;;-145.63;100.00;61273.97;5027308;28;20029;-64
2024/01/30 09:59:57;;;;;;;20.15;13.07;;;;;;;-145.63;100.00;61273.97;5012280;28;20108;-64
2024/01/30 10:02:23;;;;;;;20.70;13.27;;;;;;;-145.63;100.00;61273.97;5031463;28;20083;-64
2024/01/30 10:04:51;;;;;;;19.80;12.88;;;;;;;-145.63;100.00;61273.97;5031776;28;20038;-64
2024/01/30 10:07:18;;;;;;;21.13;13.13;;;;;;;-145.63;100.00;61273.97;5021257;28;20034;-64
2024/01/30 10:09:43;;;;;;;20.02;13.65;;;;;;;-145.63;100.00;61273.97;5016754;28;20087;-63
2024/01/30 10:12:09;;;;;;;20.85;13.00;;;;;;;-145.63;100.00;61273.97;5013564;28;20091;-64
2024/01/30 10:14:39;;;;;;;18.67;13.43;;;;;;;-145.63;100.00;61273.97;5031641;28;20041;-64
2024/01/30 10:17:05;;;;;;;19.63;13.32;;;;;;;-145.63;100.00;61273.97;5017284;28;20100;-63
2024/01/30 10:19:31;;;;;;;21.52;13.48;;;;;;;-145.63;100.00;61273.97;5023826;28;20562;-63
2024/01/30 10:21:59;;;;;;;18.73;13.68;;;;;;;-145.63;100.00;61273.97;5032108;28;20033;-65
2024/01/30 10:24:26;;;;;;;18.52;12.38;;;;;;;-145.63;100.00;61273.97;5031699;28;20033;-64
2024/01/30 10:26:51;;;;;;;17.85;12.75;;;;;;;-145.63;100.00;61273.97;5031441;28;20658;-64
2024/01/30 10:29:17;;;;;;;19.20;12.27;;;;;;;-145.63;100.00;61273.97;5031641;28;20032;-64
2024/01/30 10:31:43;;;;;;;19.10;12.68;;;;;;;-145.63;100.00;61273.97;5031443;28;20033;-64
2024/01/30 10:34:08;;;;;;;20.30;12.95;;;;;;;-145.63;100.00;61273.97;5031743;28;20025;-63
2024/01/30 10:36:43;;;;;;;19.80;12.60;;;;;;;-145.63;100.00;61273.97;5025295;28;20046;-63
2024/01/30 10:39:08;;;;;;;24.15;13.68;;;;;;;-145.63;100.00;61273.97;5020349;28;20034;-64
2024/01/30 10:41:44;;;;;;;20.15;12.73;;;;;;;-145.63;100.00;61273.97;5029870;28;20036;-63
2024/01/30 10:44:11;;;;;;;23.85;13.77;;;;;;;-145.63;100.00;61273.97;5031950;28;20033;-64
2024/01/30 10:46:39;;;;;;;24.50;14.25;;;;;;;-145.63;100.00;61273.97;5031079;28;20488;-65
2024/01/30 10:49:06;;;;;;;25.25;13.65;;;;;;;-145.63;100.00;61273.97;5031097;28;20040;-64
2024/01/30 10:51:32;;;;;;;19.67;13.07;;;;;;;-145.63;100.00;61273.97;5028305;28;20037;-66
2024/01/30 10:53:58;;;;;;;20.95;12.90;;;;;;;-145.63;100.00;61273.97;5031458;28;20121;-65
2024/01/30 10:56:24;;;;;;;19.20;13.25;;;;;;;-145.63;100.00;61273.97;5031312;28;20112;-63